createdAt,value
2023-03-10T00:00:23.186Z,3.10
2023-03-10T00:03:15.323Z,3.30
2023-03-10T00:05:48.056Z,3.80
2023-03-10T00:08:20.219Z,3.30
2023-03-10T00:10:52.256Z,3.50
2023-03-10T00:13:24.350Z,3.10
2023-03-10T00:15:56.542Z,3.40
2023-03-10T00:18:28.768Z,3.40
2023-03-10T00:21:01.047Z,3.30
2023-03-10T00:23:36.293Z,3.30
2023-03-10T00:26:10.727Z,3.10
2023-03-10T00:28:42.898Z,3.20
2023-03-10T00:31:17.911Z,2.70
2023-03-10T00:33:52.361Z,2.60
2023-03-10T00:36:25.965Z,2.50
2023-03-10T00:39:01.051Z,3.00
2023-03-10T00:41:36.902Z,2.80
2023-03-10T00:44:11.356Z,3.20
2023-03-10T00:46:43.861Z,2.80
2023-03-10T00:49:18.160Z,2.40
2023-03-10T00:51:50.747Z,2.60
2023-03-10T00:54:24.308Z,2.30
2023-03-10T00:56:56.474Z,2.80
2023-03-10T00:59:34.926Z,2.50
2023-03-10T01:02:12.807Z,2.40
2023-03-10T01:04:45.131Z,2.90
2023-03-10T01:07:17.261Z,2.60
2023-03-10T01:09:49.302Z,2.60
2023-03-10T01:12:23.238Z,2.40
2023-03-10T01:14:55.304Z,2.60
2023-03-10T01:17:27.375Z,2.70
2023-03-10T01:19:59.499Z,2.50
2023-03-10T01:22:31.590Z,1.90
2023-03-10T01:25:03.782Z,2.30
2023-03-10T01:27:35.914Z,2.40
2023-03-10T01:30:11.564Z,2.70
2023-03-10T01:32:43.802Z,2.10
2023-03-10T01:35:15.995Z,2.70
2023-03-10T01:37:48.103Z,2.30
2023-03-10T01:40:21.204Z,2.10
2023-03-10T01:42:53.225Z,2.40
2023-03-10T01:46:00.028Z,2.60
2023-03-10T01:48:35.241Z,2.80
2023-03-10T01:51:08.093Z,3.00
2023-03-10T01:53:40.699Z,2.30
2023-03-10T01:56:13.416Z,2.40
2023-03-10T01:58:48.187Z,2.50
2023-03-10T02:01:20.550Z,2.30
2023-03-10T02:03:58.989Z,2.30
2023-03-10T02:06:32.431Z,3.50
2023-03-10T02:09:06.057Z,2.90
2023-03-10T02:11:39.215Z,2.60
2023-03-10T02:14:11.539Z,2.40
2023-03-10T02:16:43.985Z,2.50
2023-03-10T02:19:28.706Z,2.60
2023-03-10T02:22:07.436Z,2.30
2023-03-10T02:24:47.719Z,2.70
2023-03-10T02:27:25.928Z,2.90
2023-03-10T02:30:04.251Z,2.00
2023-03-10T02:32:43.410Z,2.40
2023-03-10T02:35:16.067Z,2.40
2023-03-10T02:37:55.598Z,3.00
2023-03-10T02:40:38.147Z,2.70
2023-03-10T02:43:27.910Z,2.30
2023-03-10T02:46:11.987Z,3.10
2023-03-10T02:48:46.475Z,2.50
2023-03-10T02:51:28.432Z,2.50
2023-03-10T02:54:02.344Z,2.80
2023-03-10T02:56:35.743Z,2.20
2023-03-10T02:59:10.299Z,2.20
2023-03-10T03:01:45.905Z,2.00
2023-03-10T03:04:18.373Z,2.60
2023-03-10T03:06:50.587Z,2.90
2023-03-10T03:09:22.942Z,2.40
2023-03-10T03:11:55.190Z,2.70
2023-03-10T03:14:27.704Z,3.10
2023-03-10T03:17:00.122Z,2.70
2023-03-10T03:19:32.448Z,2.50
2023-03-10T03:22:04.824Z,2.40
2023-03-10T03:24:37.083Z,2.60
2023-03-10T03:27:09.532Z,3.00
2023-03-10T03:29:41.836Z,3.40
2023-03-10T03:32:14.126Z,4.20
2023-03-10T03:34:46.334Z,5.00
2023-03-10T03:37:18.823Z,6.10
2023-03-10T03:39:50.959Z,5.60
2023-03-10T03:42:23.290Z,6.20
2023-03-10T03:44:58.016Z,5.00
2023-03-10T03:47:30.161Z,3.30
2023-03-10T03:50:02.413Z,2.90
2023-03-10T03:52:35.213Z,2.60
2023-03-10T03:55:08.632Z,2.40
2023-03-10T03:57:41.276Z,2.80
2023-03-10T04:00:19.548Z,2.60
2023-03-10T04:02:52.891Z,3.30
2023-03-10T04:05:25.057Z,3.20
2023-03-10T04:07:57.264Z,5.10
2023-03-10T04:10:29.962Z,3.90
2023-03-10T04:13:02.182Z,4.60
2023-03-10T04:15:34.680Z,4.70
2023-03-10T04:18:08.483Z,4.40
2023-03-10T04:20:41.066Z,5.40
2023-03-10T04:23:13.258Z,5.50
2023-03-10T04:25:46.420Z,6.60
2023-03-10T04:28:19.411Z,7.20
2023-03-10T04:30:52.880Z,6.00
2023-03-10T04:33:27.444Z,6.30
2023-03-10T04:36:04.362Z,7.30
2023-03-10T04:38:36.607Z,6.20
2023-03-10T04:41:09.667Z,5.70
2023-03-10T04:46:19.881Z,9.70
2023-03-10T04:48:53.244Z,8.10
2023-03-10T04:51:25.489Z,8.60
2023-03-10T04:53:59.955Z,8.40
2023-03-10T04:56:35.016Z,6.60
2023-03-10T04:59:07.176Z,7.10
2023-03-10T05:01:39.334Z,8.30
2023-03-10T05:04:12.952Z,8.70
2023-03-10T05:06:45.112Z,48.80
2023-03-10T05:09:29.640Z,23.00
2023-03-10T05:12:02.225Z,6.40
2023-03-10T05:14:36.016Z,4.90
2023-03-10T05:17:08.315Z,5.10
2023-03-10T05:19:40.804Z,5.30
2023-03-10T05:22:13.641Z,4.10
2023-03-10T05:24:45.867Z,4.00
2023-03-10T05:27:19.980Z,3.60
2023-03-10T05:29:52.299Z,4.20
2023-03-10T05:32:26.887Z,3.80
2023-03-10T05:34:59.946Z,3.70
2023-03-10T05:37:32.310Z,5.20
2023-03-10T05:40:05.328Z,10.70
2023-03-10T05:42:37.459Z,7.80
2023-03-10T05:45:12.122Z,7.30
2023-03-10T05:47:46.678Z,7.10
2023-03-10T05:50:21.130Z,8.00
2023-03-10T05:52:53.514Z,7.60
2023-03-10T05:55:28.844Z,4.20
2023-03-10T05:58:01.221Z,3.10
2023-03-10T06:00:33.898Z,2.80
2023-03-10T06:03:06.202Z,3.00
2023-03-10T06:05:38.253Z,3.60
2023-03-10T06:08:11.309Z,3.70
2023-03-10T06:10:43.426Z,5.50
2023-03-10T06:13:15.558Z,8.40
2023-03-10T06:15:49.073Z,6.70
2023-03-10T06:18:21.729Z,6.20
2023-03-10T06:20:54.466Z,5.90
2023-03-10T06:23:27.541Z,3.60
2023-03-10T06:26:01.625Z,4.90
2023-03-10T06:28:35.826Z,3.80
2023-03-10T06:31:10.278Z,2.60
2023-03-10T06:33:42.521Z,2.80
2023-03-10T06:36:15.389Z,3.30
2023-03-10T06:38:47.961Z,3.50
2023-03-10T06:41:20.543Z,2.90
2023-03-10T06:43:52.781Z,2.80
2023-03-10T06:46:25.713Z,2.80
2023-03-10T06:48:57.991Z,3.30
2023-03-10T06:51:30.000Z,2.90
2023-03-10T06:54:02.141Z,2.50
2023-03-10T06:56:34.233Z,2.80
2023-03-10T06:59:06.260Z,2.80
2023-03-10T07:01:38.415Z,2.80
2023-03-10T07:04:11.568Z,3.10
2023-03-10T07:06:43.825Z,2.90
2023-03-10T07:09:15.899Z,3.20
2023-03-10T07:11:47.967Z,3.40
2023-03-10T07:14:20.098Z,4.50
2023-03-10T07:16:52.389Z,5.30
2023-03-10T07:19:24.780Z,4.40
2023-03-10T07:21:57.015Z,4.70
2023-03-10T07:24:29.190Z,4.80
2023-03-10T07:27:03.505Z,4.30
2023-03-10T07:29:35.349Z,3.30
2023-03-10T07:32:09.467Z,2.80
2023-03-10T07:34:42.276Z,3.00
2023-03-10T07:37:14.376Z,3.80
2023-03-10T07:39:46.779Z,4.20
2023-03-10T07:42:19.095Z,3.10
2023-03-10T07:44:52.292Z,2.50
2023-03-10T07:47:24.560Z,2.40
2023-03-10T07:49:56.712Z,3.40
2023-03-10T07:52:29.579Z,3.20
2023-03-10T07:55:01.788Z,2.90
2023-03-10T07:57:34.017Z,2.80
2023-03-10T08:00:07.922Z,4.20
2023-03-10T08:02:49.220Z,5.30
2023-03-10T08:05:23.047Z,3.30
2023-03-10T08:07:55.396Z,3.30
2023-03-10T08:10:27.953Z,2.60
2023-03-10T08:13:00.844Z,2.70
2023-03-10T08:15:33.193Z,3.30
2023-03-10T08:18:05.758Z,3.40
2023-03-10T08:20:40.722Z,4.60
2023-03-10T08:23:13.087Z,5.00
2023-03-10T08:25:46.133Z,4.00
2023-03-10T08:28:18.558Z,4.30
2023-03-10T08:31:03.736Z,3.20
2023-03-10T08:33:37.793Z,3.30
2023-03-10T08:36:13.142Z,3.80
2023-03-10T08:38:47.660Z,3.60
2023-03-10T08:41:22.094Z,3.90
2023-03-10T08:43:56.607Z,4.50
2023-03-10T08:46:32.006Z,3.50
2023-03-10T08:49:04.656Z,3.70
2023-03-10T08:51:37.035Z,4.40
2023-03-10T08:54:09.953Z,3.50
2023-03-10T08:56:42.332Z,3.80
2023-03-10T08:59:14.703Z,3.50
2023-03-10T09:01:47.741Z,4.40
2023-03-10T09:04:20.007Z,4.70
2023-03-10T09:06:52.329Z,5.40
2023-03-10T09:09:24.495Z,4.30
2023-03-10T09:11:56.625Z,5.00
2023-03-10T09:14:28.813Z,5.50
2023-03-10T09:17:01.312Z,4.30
2023-03-10T09:19:33.751Z,4.50
2023-03-10T09:22:06.258Z,4.60
2023-03-10T09:24:38.583Z,4.40
2023-03-10T09:27:11.174Z,4.80
2023-03-10T09:29:43.846Z,4.70
2023-03-10T09:32:16.463Z,4.00
2023-03-10T09:34:49.256Z,3.90
2023-03-10T09:37:21.804Z,3.90
2023-03-10T09:39:54.183Z,4.20
2023-03-10T09:42:39.458Z,5.10
2023-03-10T09:45:33.869Z,4.10
2023-03-10T09:48:29.396Z,4.30
2023-03-10T09:51:05.954Z,4.50
2023-03-10T09:53:54.133Z,4.90
2023-03-10T09:56:31.708Z,5.00
2023-03-10T09:59:11.496Z,4.80
2023-03-10T10:01:46.653Z,4.30
2023-03-10T10:04:23.880Z,5.00
2023-03-10T10:06:58.608Z,4.20
2023-03-10T10:09:43.422Z,4.40
2023-03-10T10:12:18.302Z,5.20
2023-03-10T10:14:57.144Z,4.40
2023-03-10T10:17:56.501Z,4.30
2023-03-10T10:20:38.447Z,5.00
2023-03-10T10:23:20.897Z,3.80
2023-03-10T10:25:53.678Z,4.70
2023-03-10T10:28:34.360Z,4.30
2023-03-10T10:31:20.645Z,4.70
2023-03-10T10:33:57.625Z,4.90
2023-03-10T10:36:32.419Z,5.40
2023-03-10T10:39:21.468Z,5.80
2023-03-10T10:41:54.106Z,5.20
2023-03-10T10:44:27.194Z,4.90
2023-03-10T10:47:00.605Z,5.00
2023-03-10T10:49:34.689Z,4.20
2023-03-10T10:52:20.382Z,3.20
2023-03-10T10:54:59.042Z,3.40
2023-03-10T10:57:35.509Z,3.80
2023-03-10T11:00:25.452Z,3.50
2023-03-10T11:02:57.764Z,3.90
2023-03-10T11:05:36.141Z,4.20
2023-03-10T11:08:30.706Z,3.90
2023-03-10T11:11:09.463Z,3.80
2023-03-10T11:13:56.028Z,3.80
2023-03-10T11:16:38.369Z,3.90
2023-03-10T11:19:19.117Z,3.40
2023-03-10T11:21:57.806Z,4.10
2023-03-10T11:24:41.502Z,4.00
2023-03-10T11:27:22.459Z,4.30
2023-03-10T11:30:07.169Z,3.90
2023-03-10T11:32:51.120Z,4.30
2023-03-10T11:35:29.377Z,3.70
2023-03-10T11:38:15.802Z,4.40
2023-03-10T11:40:52.286Z,3.90
2023-03-10T11:43:34.997Z,5.80
2023-03-10T11:46:15.527Z,4.60
2023-03-10T11:48:56.853Z,4.50
2023-03-10T11:51:35.993Z,4.10
2023-03-10T11:54:15.864Z,4.30
2023-03-10T11:56:50.742Z,4.60
2023-03-10T11:59:25.401Z,3.90
2023-03-10T12:02:07.589Z,4.70
2023-03-10T12:04:48.298Z,4.20
2023-03-10T12:07:28.250Z,3.80
2023-03-10T12:10:02.355Z,5.50
2023-03-10T12:12:37.974Z,5.60
2023-03-10T12:17:47.170Z,4.70
2023-03-10T12:20:31.519Z,4.30
2023-03-10T12:23:41.019Z,4.60
2023-03-10T12:26:13.629Z,3.40
2023-03-10T12:28:49.068Z,4.50
2023-03-10T12:31:48.183Z,3.90
2023-03-10T12:34:23.412Z,4.40
2023-03-10T12:37:04.478Z,3.70
2023-03-10T12:39:41.701Z,3.50
2023-03-10T12:42:36.351Z,5.00
2023-03-10T12:45:24.396Z,4.40
2023-03-10T12:48:07.564Z,3.40
2023-03-10T12:50:48.592Z,2.70
2023-03-10T12:53:34.010Z,3.50
2023-03-10T12:56:22.983Z,3.90
2023-03-10T12:59:05.656Z,3.30
2023-03-10T13:01:55.138Z,4.40
2023-03-10T13:04:29.941Z,2.70
2023-03-10T13:07:04.250Z,2.60
2023-03-10T13:09:41.441Z,3.20
2023-03-10T13:12:19.089Z,3.50
2023-03-10T13:14:56.588Z,3.60
2023-03-10T13:17:31.082Z,3.70
2023-03-10T13:20:09.707Z,3.20
2023-03-10T13:22:53.147Z,3.40
2023-03-10T13:25:26.420Z,4.50
2023-03-10T13:27:58.784Z,4.00
2023-03-10T13:30:31.210Z,2.70
2023-03-10T13:33:05.346Z,2.60
2023-03-10T13:35:39.900Z,3.60
2023-03-10T13:38:18.034Z,4.00
2023-03-10T13:40:59.637Z,3.40
2023-03-10T13:46:19.396Z,3.60
2023-03-10T13:48:52.513Z,3.20
2023-03-10T13:51:31.745Z,3.70
2023-03-10T13:54:22.494Z,4.20
2023-03-10T13:56:57.301Z,3.30
2023-03-10T13:59:34.212Z,2.40
2023-03-10T14:02:15.423Z,4.70
2023-03-10T14:04:50.732Z,4.60
2023-03-10T14:10:20.534Z,5.50
2023-03-10T14:12:56.295Z,4.40
2023-03-10T14:15:33.601Z,4.80
2023-03-10T14:18:22.193Z,5.60
2023-03-10T14:20:55.265Z,5.40
2023-03-10T14:23:35.367Z,4.90
2023-03-10T14:26:16.449Z,3.20
2023-03-10T14:28:49.560Z,4.40
2023-03-10T14:31:25.233Z,4.90
2023-03-10T14:33:58.246Z,4.30
2023-03-10T14:36:31.249Z,3.80
2023-03-10T14:39:11.208Z,3.90
2023-03-10T14:41:44.470Z,4.60
2023-03-10T14:44:17.348Z,4.20
2023-03-10T14:46:53.455Z,4.80
2023-03-10T14:49:29.868Z,4.70
2023-03-10T14:52:03.274Z,5.10
2023-03-10T14:54:36.013Z,4.80
2023-03-10T14:57:09.410Z,4.80
2023-03-10T14:59:44.755Z,5.20
2023-03-10T15:02:23.492Z,5.40
2023-03-10T15:04:59.347Z,5.10
2023-03-10T15:07:32.046Z,5.40
2023-03-10T15:10:11.426Z,5.30
2023-03-10T15:12:45.646Z,5.10
2023-03-10T15:15:23.102Z,5.60
2023-03-10T15:17:56.092Z,4.80
2023-03-10T15:20:28.749Z,5.30
2023-03-10T15:23:02.414Z,5.90
2023-03-10T15:25:35.855Z,5.80
2023-03-10T15:28:08.814Z,5.20
2023-03-10T15:30:41.633Z,6.70
2023-03-10T15:33:14.479Z,5.80
2023-03-10T15:35:47.382Z,7.90
2023-03-10T15:38:20.146Z,7.80
2023-03-10T15:40:52.728Z,8.30
2023-03-10T15:43:25.626Z,7.30
2023-03-10T15:45:58.395Z,5.70
2023-03-10T15:48:31.002Z,6.00
2023-03-10T15:51:03.676Z,5.30
2023-03-10T15:53:36.746Z,5.20
2023-03-10T15:56:12.105Z,6.90
2023-03-10T15:58:44.970Z,10.50
2023-03-10T16:01:20.853Z,10.60
2023-03-10T16:03:53.556Z,18.60
2023-03-10T16:06:29.389Z,16.90
2023-03-10T16:09:02.666Z,16.90
2023-03-10T16:11:35.331Z,11.70
2023-03-10T16:14:08.231Z,9.90
2023-03-10T16:16:40.928Z,11.10
2023-03-10T16:19:13.491Z,9.10
2023-03-10T16:21:46.484Z,8.90
2023-03-10T16:24:21.401Z,8.90
2023-03-10T16:26:54.256Z,8.00
2023-03-10T16:29:27.072Z,10.10
2023-03-10T16:32:00.087Z,12.00
2023-03-10T16:34:32.795Z,11.60
2023-03-10T16:37:08.204Z,7.50
2023-03-10T16:39:40.759Z,7.10
2023-03-10T16:42:13.235Z,5.50
2023-03-10T16:44:45.884Z,5.60
2023-03-10T16:47:18.770Z,4.60
2023-03-10T16:49:51.276Z,6.20
2023-03-10T16:52:24.427Z,5.90
2023-03-10T16:55:05.151Z,6.00
2023-03-10T16:57:37.840Z,5.70
2023-03-10T17:00:13.769Z,5.30
2023-03-10T17:05:18.669Z,6.30
2023-03-10T17:07:55.917Z,8.20
2023-03-10T17:10:29.632Z,9.10
2023-03-10T17:13:02.239Z,11.00
2023-03-10T17:15:35.536Z,7.80
2023-03-10T17:18:08.628Z,6.50
2023-03-10T17:20:41.663Z,5.30
2023-03-10T17:23:14.713Z,5.70
2023-03-10T17:25:48.334Z,6.40
2023-03-10T17:28:21.258Z,7.20
2023-03-10T17:30:54.023Z,6.00
2023-03-10T17:33:26.668Z,7.40
2023-03-10T17:35:59.451Z,8.70
2023-03-10T17:38:32.736Z,10.10
2023-03-10T17:41:08.324Z,12.30
2023-03-10T17:43:43.172Z,12.70
2023-03-10T17:46:17.997Z,13.90
2023-03-10T17:48:52.721Z,11.50
2023-03-10T17:51:27.379Z,8.90
2023-03-10T17:54:02.697Z,9.10
2023-03-10T17:56:36.604Z,9.60
2023-03-10T17:59:10.753Z,9.40
2023-03-10T18:01:44.977Z,8.30
2023-03-10T18:04:17.881Z,8.50
2023-03-10T18:06:50.515Z,10.10
2023-03-10T18:09:23.486Z,10.80
2023-03-10T18:11:59.828Z,8.20
2023-03-10T18:14:32.890Z,8.40
2023-03-10T18:17:05.933Z,7.90
2023-03-10T18:19:38.756Z,7.60
2023-03-10T18:22:11.367Z,6.70
2023-03-10T18:24:44.794Z,6.90
2023-03-10T18:27:18.951Z,8.00
2023-03-10T18:29:52.558Z,7.10
2023-03-10T18:32:27.700Z,8.20
2023-03-10T18:35:02.996Z,8.70
2023-03-10T18:37:35.936Z,8.30
2023-03-10T18:40:14.198Z,9.10
2023-03-10T18:42:46.886Z,9.50
2023-03-10T18:45:20.127Z,10.20
2023-03-10T18:47:53.148Z,8.90
2023-03-10T18:50:25.821Z,10.30
2023-03-10T18:52:58.676Z,9.80
2023-03-10T18:55:31.932Z,11.10
2023-03-10T18:58:05.162Z,9.70
2023-03-10T19:00:38.624Z,11.10
2023-03-10T19:03:13.797Z,11.10
2023-03-10T19:05:47.650Z,10.20
2023-03-10T19:08:22.395Z,11.20
2023-03-10T19:11:00.088Z,10.10
2023-03-10T19:13:34.584Z,10.40
2023-03-10T19:16:10.927Z,11.20
2023-03-10T19:18:43.749Z,11.20
2023-03-10T19:21:16.654Z,11.80
2023-03-10T19:23:49.306Z,12.30
2023-03-10T19:26:22.758Z,11.10
2023-03-10T19:28:56.110Z,10.10
2023-03-10T19:31:29.090Z,12.70
2023-03-10T19:34:01.812Z,12.80
2023-03-10T19:36:34.560Z,12.60
2023-03-10T19:39:09.544Z,15.30
2023-03-10T19:41:42.585Z,14.80
2023-03-10T19:44:15.037Z,15.80
2023-03-10T19:46:48.415Z,16.40
2023-03-10T19:49:24.541Z,17.20
2023-03-10T19:51:57.569Z,15.10
2023-03-10T19:54:30.436Z,15.70
2023-03-10T19:57:03.341Z,16.00
2023-03-10T19:59:36.469Z,16.40
2023-03-10T20:02:13.361Z,15.90
2023-03-10T20:04:48.123Z,14.10
2023-03-10T20:07:21.930Z,10.60
2023-03-10T20:09:54.969Z,11.60
2023-03-10T20:12:27.706Z,11.00
2023-03-10T20:15:01.566Z,11.30
2023-03-10T20:17:34.348Z,13.10
2023-03-10T20:20:10.812Z,16.40
2023-03-10T20:22:46.672Z,14.70
2023-03-10T20:25:21.504Z,10.20
2023-03-10T20:27:55.616Z,10.60
2023-03-10T20:30:30.833Z,9.40
2023-03-10T20:33:03.812Z,9.10
2023-03-10T20:35:38.384Z,9.10
2023-03-10T20:38:11.114Z,8.90
2023-03-10T20:40:43.801Z,9.70
2023-03-10T20:43:17.537Z,11.30
2023-03-10T20:45:53.894Z,13.30
2023-03-10T20:48:26.997Z,12.20
2023-03-10T20:51:02.074Z,12.20
2023-03-10T20:53:37.413Z,12.10
2023-03-10T20:56:14.403Z,9.80
2023-03-10T20:58:47.080Z,13.00
2023-03-10T21:01:21.437Z,7.00
2023-03-10T21:03:55.230Z,9.10
2023-03-10T21:06:28.967Z,8.40
2023-03-10T21:09:05.987Z,9.30
2023-03-10T21:11:38.530Z,7.20
2023-03-10T21:14:11.068Z,8.10
2023-03-10T21:16:46.854Z,8.40
2023-03-10T21:19:19.614Z,6.80
2023-03-10T21:21:52.158Z,6.90
2023-03-10T21:24:24.554Z,7.70
2023-03-10T21:26:57.003Z,8.30
2023-03-10T21:29:29.669Z,6.40
2023-03-10T21:32:02.428Z,8.00
2023-03-10T21:34:35.023Z,7.10
2023-03-10T21:37:08.823Z,6.70
2023-03-10T21:39:41.387Z,7.50
2023-03-10T21:42:14.968Z,8.00
2023-03-10T21:44:48.219Z,7.40
2023-03-10T21:47:20.814Z,7.30
2023-03-10T21:49:53.326Z,7.80
2023-03-10T21:52:25.930Z,11.20
2023-03-10T21:54:58.622Z,14.40
2023-03-10T21:57:31.256Z,13.00
2023-03-10T22:00:09.461Z,12.00
2023-03-10T22:02:42.193Z,10.40
2023-03-10T22:05:17.427Z,10.90
2023-03-10T22:07:50.318Z,9.30
2023-03-10T22:10:23.529Z,7.70
2023-03-10T22:12:55.992Z,9.80
2023-03-10T22:15:30.009Z,11.70
2023-03-10T22:18:02.525Z,10.20
2023-03-10T22:20:35.332Z,10.70
2023-03-10T22:23:08.054Z,11.00
2023-03-10T22:25:40.643Z,11.80
2023-03-10T22:28:13.301Z,11.60
2023-03-10T22:30:45.724Z,9.00
2023-03-10T22:33:18.264Z,7.50
2023-03-10T22:35:52.578Z,7.10
2023-03-10T22:38:25.139Z,7.70
2023-03-10T22:40:57.523Z,7.60
2023-03-10T22:43:30.612Z,7.10
2023-03-10T22:46:10.911Z,7.10
2023-03-10T22:48:43.637Z,7.20
2023-03-10T22:51:19.040Z,5.60
2023-03-10T22:53:51.643Z,5.90
2023-03-10T22:56:24.246Z,6.00
2023-03-10T22:58:56.941Z,4.50
2023-03-10T23:01:29.550Z,3.80
2023-03-10T23:04:01.802Z,3.40
2023-03-10T23:06:35.805Z,4.30
2023-03-10T23:09:10.646Z,3.90
2023-03-10T23:11:43.049Z,2.60
2023-03-10T23:14:15.280Z,2.60
2023-03-10T23:16:47.433Z,1.60
2023-03-10T23:19:19.975Z,1.80
2023-03-10T23:21:52.129Z,2.00
2023-03-10T23:24:24.240Z,2.30
2023-03-10T23:26:56.338Z,2.50
2023-03-10T23:29:28.890Z,1.90
2023-03-10T23:32:01.074Z,1.90
2023-03-10T23:34:33.145Z,2.00
2023-03-10T23:37:05.434Z,2.00
2023-03-10T23:39:37.618Z,2.40
2023-03-10T23:42:10.282Z,3.60
2023-03-10T23:44:42.925Z,2.30
2023-03-10T23:47:15.190Z,2.40
2023-03-10T23:49:47.300Z,2.30
2023-03-10T23:52:19.429Z,2.40
2023-03-10T23:54:51.508Z,2.50
2023-03-10T23:57:23.564Z,2.00
2023-03-10T23:59:55.816Z,2.10
